Bitola, Macedonia
Current Conditions -  °F | °C
As of 4:20 AM on Monday 26 Jan 2015 (Local Time) from LGKZ Reporting Station
Light Snow Light Snow  
Wind Chill: -3°   Ceiling: NA
Heat Index:   Visibility: NA
Dew Point:   Wind: 14mph
Humidity: 93%   Direction: 340°NNW
Pressure: 29.97"   Gusts: NA
Location:  41.04°N, 21.34°E
Report Text: LGKZ 260220Z AUTO 34012KT 320V020 //// -RASN ////// 02/01 Q1015 RE//
Loading
Personal Weather Stations






























Interactive Weather Map New forecast layout! Learn more

10-Day Weather Forecast

Advertisements
Track Severe Weather on mobile